Time;durP1;ratioP1;P1;durP2;ratioP2;P2;SDS_P1;SDS_P2;PMS_P1;PMS_P2;Temp;Humidity;BMP_temperature;BMP_pressure;BME280_temperature;BME280_humidity;BME280_pressure;Samples;Min_cycle;Max_cycle;Signal;HPM_P1;HPM_P2
2021/03/27 00:02:11;;;;;;;9.33;5.60;;;;;;;;;;5015526;28;20573;-74
2021/03/27 00:05:24;;;;;;;15.10;6.60;;;;;;;;;;5014790;28;20182;-74
2021/03/27 00:08:47;;;;;;;11.67;6.70;;;;;;;;;;5014988;28;20178;-74
2021/03/27 00:12:00;;;;;;;13.17;6.20;;;;;;;;;;5019226;28;20225;-73
2021/03/27 00:15:10;;;;;;;15.43;7.07;;;;;;;;;;5022225;28;20193;-74
2021/03/27 00:18:23;;;;;;;11.50;6.90;;;;;;;;;;5022103;28;20212;-74
2021/03/27 00:21:35;;;;;;;13.57;7.00;;;;;;;;;;5020415;28;20225;-73
2021/03/27 00:25:04;;;;;;;12.33;6.73;;;;;;;;;;5034217;28;20193;-74
2021/03/27 00:28:13;;;;;;;10.40;7.10;;;;;;;;;;5034436;28;20173;-74
2021/03/27 00:31:22;;;;;;;11.13;6.53;;;;;;;;;;5009625;28;20652;-74
2021/03/27 00:34:31;;;;;;;12.53;6.97;;;;;;;;;;4993689;28;20196;-74
2021/03/27 00:37:36;;;;;;;14.90;7.03;;;;;;;;;;5021953;28;20181;-74
2021/03/27 00:40:52;;;;;;;13.13;7.53;;;;;;;;;;5022590;28;20197;-74
2021/03/27 00:43:59;;;;;;;13.10;7.27;;;;;;;;;;5030989;28;20200;-74
2021/03/27 00:47:06;;;;;;;14.60;7.10;;;;;;;;;;5033725;28;20196;-74
2021/03/27 00:50:16;;;;;;;10.30;6.80;;;;;;;;;;5010122;28;20177;-74
2021/03/27 00:53:34;;;;;;;13.43;7.20;;;;;;;;;;5033664;28;20220;-73
2021/03/27 00:56:58;;;;;;;12.33;6.13;;;;;;;;;;5021084;28;20185;-74
2021/03/27 01:00:07;;;;;;;12.07;6.83;;;;;;;;;;5028415;28;20182;-74
2021/03/27 01:03:56;;;;;;;9.30;6.10;;;;;;;;;;5023650;28;20197;-74
2021/03/27 01:07:37;;;;;;;9.43;6.37;;;;;;;;;;4945890;28;20195;-75
2021/03/27 01:11:00;;;;;;;8.47;6.00;;;;;;;;;;5022365;28;20644;-74
2021/03/27 01:14:22;;;;;;;9.77;6.33;;;;;;;;;;5014737;28;20196;-73
2021/03/27 01:17:32;;;;;;;10.63;6.50;;;;;;;;;;5021477;28;20172;-74
2021/03/27 01:20:40;;;;;;;10.17;6.63;;;;;;;;;;5001873;28;20201;-74
2021/03/27 01:23:44;;;;;;;10.83;6.97;;;;;;;;;;5004571;28;20197;-74
2021/03/27 01:26:56;;;;;;;10.77;6.63;;;;;;;;;;5033154;28;20196;-74
2021/03/27 01:30:06;;;;;;;8.73;6.60;;;;;;;;;;5022741;28;20185;-74
2021/03/27 01:33:31;;;;;;;8.03;5.93;;;;;;;;;;5020975;28;20216;-74
2021/03/27 01:36:41;;;;;;;9.67;5.80;;;;;;;;;;5021011;28;20525;-74
2021/03/27 01:39:58;;;;;;;8.53;6.37;;;;;;;;;;5020583;28;20212;-73
2021/03/27 01:43:13;;;;;;;7.50;5.30;;;;;;;;;;5033223;28;20648;-74
2021/03/27 01:46:30;;;;;;;8.50;5.50;;;;;;;;;;5013590;28;20648;-74
2021/03/27 01:49:45;;;;;;;8.73;5.20;;;;;;;;;;5016960;28;20559;-73
2021/03/27 01:53:28;;;;;;;8.10;5.37;;;;;;;;;;5020449;28;20695;-74
2021/03/27 01:56:59;;;;;;;8.23;5.10;;;;;;;;;;4942468;29;20179;-74
2021/03/27 02:00:13;;;;;;;10.90;5.17;;;;;;;;;;4957517;28;20224;-74
2021/03/27 02:03:34;;;;;;;7.43;5.20;;;;;;;;;;5013053;28;20221;-74
2021/03/27 02:06:51;;;;;;;7.87;5.20;;;;;;;;;;5029931;28;20197;-74
2021/03/27 02:10:22;;;;;;;7.67;5.00;;;;;;;;;;5030413;28;20190;-74
2021/03/27 02:13:58;;;;;;;9.73;5.70;;;;;;;;;;5005156;28;20182;-74
2021/03/27 02:17:06;;;;;;;9.10;5.27;;;;;;;;;;5005125;28;20177;-74
2021/03/27 02:20:32;;;;;;;8.30;5.43;;;;;;;;;;5005069;28;20217;-73
2021/03/27 02:23:58;;;;;;;12.70;6.53;;;;;;;;;;5017480;28;20197;-73
2021/03/27 02:27:27;;;;;;;11.60;6.20;;;;;;;;;;5023186;28;20189;-73
2021/03/27 02:30:36;;;;;;;9.77;6.40;;;;;;;;;;5025742;28;20184;-73
2021/03/27 02:34:09;;;;;;;10.17;6.93;;;;;;;;;;5036306;28;20192;-75
2021/03/27 02:37:31;;;;;;;9.33;6.40;;;;;;;;;;5012066;28;20656;-74
2021/03/27 02:40:40;;;;;;;11.87;6.47;;;;;;;;;;5011298;28;20185;-74
2021/03/27 02:43:53;;;;;;;11.20;6.63;;;;;;;;;;5001254;28;20201;-74
2021/03/27 02:47:18;;;;;;;13.10;6.40;;;;;;;;;;5014401;28;20198;-74
2021/03/27 02:50:34;;;;;;;11.33;7.23;;;;;;;;;;4995672;28;20201;-74
2021/03/27 02:54:23;;;;;;;9.17;6.07;;;;;;;;;;4992924;28;20178;-74
2021/03/27 02:58:18;;;;;;;10.33;6.13;;;;;;;;;;5019990;28;20193;-74
2021/03/27 03:01:40;;;;;;;8.63;6.23;;;;;;;;;;4951003;28;20228;-74
2021/03/27 03:05:17;;;;;;;10.17;5.87;;;;;;;;;;5035943;28;20193;-74
2021/03/27 03:08:42;;;;;;;8.63;5.67;;;;;;;;;;4998259;28;20660;-74
2021/03/27 03:12:07;;;;;;;10.17;6.33;;;;;;;;;;5023241;28;20216;-74
2021/03/27 03:15:21;;;;;;;7.17;5.67;;;;;;;;;;5035847;28;20185;-74
2021/03/27 03:18:41;;;;;;;8.80;6.27;;;;;;;;;;5003760;28;20197;-74
2021/03/27 03:22:13;;;;;;;7.80;5.83;;;;;;;;;;5013919;28;20229;-74
2021/03/27 03:25:22;;;;;;;10.60;5.67;;;;;;;;;;5023488;28;20631;-74
2021/03/27 03:28:50;;;;;;;8.00;5.23;;;;;;;;;;5015805;28;20182;-74
2021/03/27 03:32:12;;;;;;;8.70;5.83;;;;;;;;;;5014455;28;20213;-73
2021/03/27 03:35:55;;;;;;;8.87;5.60;;;;;;;;;;5003343;28;20181;-74
2021/03/27 03:39:23;;;;;;;7.10;4.73;;;;;;;;;;4986440;28;20225;-74
2021/03/27 03:43:00;;;;;;;7.03;4.73;;;;;;;;;;5012981;28;20228;-74
2021/03/27 03:46:07;;;;;;;8.03;5.00;;;;;;;;;;5031215;28;20193;-74
2021/03/27 03:49:32;;;;;;;7.63;5.30;;;;;;;;;;5003046;28;20672;-74
2021/03/27 03:52:40;;;;;;;10.03;5.53;;;;;;;;;;5015060;28;20631;-73
2021/03/27 03:56:22;;;;;;;8.23;5.73;;;;;;;;;;5017127;28;20177;-74
2021/03/27 03:59:48;;;;;;;6.90;5.37;;;;;;;;;;5022780;28;20209;-74
2021/03/27 04:02:58;;;;;;;6.87;4.97;;;;;;;;;;5009915;28;20229;-74
2021/03/27 04:06:07;;;;;;;6.27;4.67;;;;;;;;;;5018590;28;20193;-74
2021/03/27 04:09:18;;;;;;;6.93;5.27;;;;;;;;;;5022665;28;20177;-74
2021/03/27 04:12:39;;;;;;;7.77;4.77;;;;;;;;;;5021898;28;20216;-74
2021/03/27 04:15:57;;;;;;;6.73;4.10;;;;;;;;;;5021882;28;20185;-74
2021/03/27 04:19:09;;;;;;;5.83;4.23;;;;;;;;;;5018002;28;20225;-74
2021/03/27 04:22:30;;;;;;;5.60;4.03;;;;;;;;;;5041260;23;20232;-73
2021/03/27 04:25:38;;;;;;;8.27;4.30;;;;;;;;;;5034186;28;20197;-73
2021/03/27 04:29:10;;;;;;;4.40;3.87;;;;;;;;;;5034537;28;20186;-73
2021/03/27 04:32:38;;;;;;;6.17;3.90;;;;;;;;;;5011211;28;20221;-73
2021/03/27 04:36:08;;;;;;;4.90;4.03;;;;;;;;;;5026162;28;20203;-72
2021/03/27 04:39:32;;;;;;;5.17;3.87;;;;;;;;;;4994850;28;20225;-72
2021/03/27 04:42:58;;;;;;;7.03;4.13;;;;;;;;;;5015276;28;20224;-72
2021/03/27 04:46:19;;;;;;;6.80;3.97;;;;;;;;;;5033977;28;20189;-72
2021/03/27 04:49:49;;;;;;;9.97;4.40;;;;;;;;;;5033858;28;20181;-72
2021/03/27 04:53:17;;;;;;;7.07;5.13;;;;;;;;;;5006359;28;20209;-72
2021/03/27 04:56:32;;;;;;;5.43;4.30;;;;;;;;;;5013962;28;20529;-72
2021/03/27 05:00:15;;;;;;;10.10;4.30;;;;;;;;;;5003002;28;20225;-73
2021/03/27 05:03:27;;;;;;;6.57;4.47;;;;;;;;;;5017362;28;20716;-72
2021/03/27 05:07:11;;;;;;;5.60;4.63;;;;;;;;;;5021686;28;20523;-73
2021/03/27 05:10:32;;;;;;;6.37;4.73;;;;;;;;;;5010077;28;20196;-72
2021/03/27 05:13:50;;;;;;;7.03;4.53;;;;;;;;;;5014484;28;20190;-72
2021/03/27 05:17:20;;;;;;;5.40;3.77;;;;;;;;;;5013929;28;20193;-72
2021/03/27 05:20:30;;;;;;;7.40;4.00;;;;;;;;;;5013711;28;20672;-72
2021/03/27 05:23:40;;;;;;;7.27;4.20;;;;;;;;;;5025794;28;20190;-72
2021/03/27 05:27:09;;;;;;;4.53;3.10;;;;;;;;;;5017701;28;20188;-72
2021/03/27 05:30:25;;;;;;;4.90;3.10;;;;;;;;;;5033516;28;20180;-72
2021/03/27 05:33:29;;;;;;;5.03;3.23;;;;;;;;;;5029910;28;20195;-72
2021/03/27 05:36:51;;;;;;;4.50;3.10;;;;;;;;;;5003761;28;20648;-72
2021/03/27 05:40:33;;;;;;;3.87;2.83;;;;;;;;;;5019995;28;20217;-72
2021/03/27 05:44:17;;;;;;;4.43;2.73;;;;;;;;;;5004011;28;20185;-72
2021/03/27 05:47:40;;;;;;;3.73;2.60;;;;;;;;;;5031376;28;20197;-72
2021/03/27 05:51:03;;;;;;;4.67;2.70;;;;;;;;;;5033285;28;20173;-72
2021/03/27 05:54:18;;;;;;;4.87;3.07;;;;;;;;;;5025831;28;20553;-72
2021/03/27 05:57:40;;;;;;;3.53;3.00;;;;;;;;;;5021562;28;20193;-72
2021/03/27 06:01:12;;;;;;;4.03;2.93;;;;;;;;;;5008852;28;20565;-72
2021/03/27 06:04:22;;;;;;;3.90;2.73;;;;;;;;;;4990535;28;20187;-72
2021/03/27 06:08:03;;;;;;;5.80;2.77;;;;;;;;;;5021927;28;20537;-72
2021/03/27 06:11:20;;;;;;;4.73;2.80;;;;;;;;;;5032682;28;20200;-72
2021/03/27 06:14:43;;;;;;;5.53;4.70;;;;;;;;;;5024497;28;20644;-72
2021/03/27 06:17:54;;;;;;;4.13;2.90;;;;;;;;;;5012688;28;20196;-72
2021/03/27 06:21:10;;;;;;;6.57;3.27;;;;;;;;;;5026140;28;20209;-72
2021/03/27 06:24:32;;;;;;;4.10;2.70;;;;;;;;;;5012999;28;20194;-72
2021/03/27 06:27:52;;;;;;;5.90;2.77;;;;;;;;;;5013394;28;20189;-72
2021/03/27 06:31:12;;;;;;;3.53;2.40;;;;;;;;;;5015011;28;20190;-72
2021/03/27 06:34:40;;;;;;;2.93;2.63;;;;;;;;;;5020069;28;20647;-72
2021/03/27 06:38:07;;;;;;;5.23;2.97;;;;;;;;;;5011335;28;20639;-72
2021/03/27 06:41:46;;;;;;;4.53;3.00;;;;;;;;;;5012923;28;20688;-72
2021/03/27 06:45:27;;;;;;;3.00;2.40;;;;;;;;;;5000782;28;20552;-72
2021/03/27 06:48:50;;;;;;;3.00;2.43;;;;;;;;;;5023970;28;20199;-72
2021/03/27 06:51:54;;;;;;;3.07;2.47;;;;;;;;;;5032423;28;20213;-72
2021/03/27 06:55:43;;;;;;;3.03;2.43;;;;;;;;;;5010961;28;20180;-72
2021/03/27 06:58:55;;;;;;;5.40;2.97;;;;;;;;;;5034189;28;20193;-72
2021/03/27 07:02:37;;;;;;;2.13;1.40;;;;;;;;;;5016344;28;20217;-72
2021/03/27 07:05:58;;;;;;;4.97;1.67;;;;;;;;;;5016114;28;20182;-71
2021/03/27 07:09:08;;;;;;;2.60;1.70;;;;;;;;;;5030751;28;20559;-71
2021/03/27 07:12:31;;;;;;;3.20;1.53;;;;;;;;;;5035288;28;20217;-72
2021/03/27 07:16:02;;;;;;;1.90;1.60;;;;;;;;;;5016152;28;20182;-72
2021/03/27 07:19:43;;;;;;;7.20;3.70;;;;;;;;;;5016160;28;20552;-71
2021/03/27 07:23:07;;;;;;;2.93;1.53;;;;;;;;;;5015594;28;20229;-72
2021/03/27 07:26:23;;;;;;;22.67;9.40;;;;;;;;;;5027644;28;20186;-72
2021/03/27 07:29:49;;;;;;;5.07;1.70;;;;;;;;;;5035137;28;20193;-71
2021/03/27 07:32:56;;;;;;;1.57;1.00;;;;;;;;;;5035219;28;20216;-72
2021/03/27 07:36:39;;;;;;;2.50;1.33;;;;;;;;;;5035048;28;20181;-74
2021/03/27 07:40:08;;;;;;;2.03;1.93;;;;;;;;;;5014507;28;20629;-72
2021/03/27 07:43:31;;;;;;;2.37;1.83;;;;;;;;;;5028791;28;20579;-72
2021/03/27 07:47:03;;;;;;;2.13;1.03;;;;;;;;;;5035295;28;20189;-72
2021/03/27 07:50:50;;;;;;;1.80;0.80;;;;;;;;;;5033270;28;20184;-72
2021/03/27 07:54:19;;;;;;;1.50;0.90;;;;;;;;;;4935440;29;20184;-72
2021/03/27 07:57:51;;;;;;;1.30;0.73;;;;;;;;;;4949269;28;20648;-72
2021/03/27 08:01:12;;;;;;;2.63;0.90;;;;;;;;;;5016360;28;20216;-72
2021/03/27 08:04:19;;;;;;;2.70;1.53;;;;;;;;;;4987573;28;20198;-72
2021/03/27 08:07:23;;;;;;;1.70;0.67;;;;;;;;;;5016780;28;20186;-72
2021/03/27 08:11:05;;;;;;;0.80;0.80;;;;;;;;;;5023251;28;20647;-72
2021/03/27 08:14:25;;;;;;;1.43;1.13;;;;;;;;;;5034762;28;20177;-71
2021/03/27 08:17:54;;;;;;;1.40;1.00;;;;;;;;;;5034724;28;20185;-72
2021/03/27 08:21:07;;;;;;;3.20;1.97;;;;;;;;;;5028863;28;20584;-72
2021/03/27 08:24:38;;;;;;;1.93;1.67;;;;;;;;;;5034064;28;20197;-72
2021/03/27 08:28:11;;;;;;;2.50;1.37;;;;;;;;;;5031515;28;20204;-72
2021/03/27 08:31:47;;;;;;;2.83;1.17;;;;;;;;;;5002319;28;20174;-72
2021/03/27 08:35:26;;;;;;;1.40;1.30;;;;;;;;;;5014680;28;20182;-72
2021/03/27 08:38:55;;;;;;;1.50;1.03;;;;;;;;;;5027197;28;20182;-72
2021/03/27 08:42:26;;;;;;;2.30;1.00;;;;;;;;;;5008080;28;20236;-72
2021/03/27 08:45:49;;;;;;;3.03;1.10;;;;;;;;;;5022094;28;20177;-72
2021/03/27 08:49:22;;;;;;;0.80;0.80;;;;;;;;;;5033872;28;20181;-72
2021/03/27 08:52:50;;;;;;;2.67;0.90;;;;;;;;;;5013984;28;20217;-72
2021/03/27 08:56:06;;;;;;;2.00;1.03;;;;;;;;;;5002200;28;20181;-72
2021/03/27 08:59:55;;;;;;;3.47;1.97;;;;;;;;;;5018986;28;20185;-72
2021/03/27 09:03:21;;;;;;;1.80;1.70;;;;;;;;;;5004477;28;20712;-72
2021/03/27 09:06:33;;;;;;;1.20;1.10;;;;;;;;;;5002058;28;20198;-72
2021/03/27 09:09:37;;;;;;;1.17;0.93;;;;;;;;;;5019000;28;20192;-73
2021/03/27 09:12:47;;;;;;;2.20;1.00;;;;;;;;;;5017737;28;20213;-74
2021/03/27 09:16:10;;;;;;;2.73;0.90;;;;;;;;;;5013538;28;20197;-73
2021/03/27 09:19:40;;;;;;;1.00;0.80;;;;;;;;;;4995499;28;20182;-73
2021/03/27 09:23:11;;;;;;;3.33;1.00;;;;;;;;;;5028265;28;20584;-73
2021/03/27 09:26:46;;;;;;;1.67;1.30;;;;;;;;;;5020991;28;20185;-73
2021/03/27 09:30:03;;;;;;;1.50;1.03;;;;;;;;;;5024463;28;20197;-71
2021/03/27 09:33:28;;;;;;;1.23;0.80;;;;;;;;;;5014414;28;20222;-71
2021/03/27 09:36:46;;;;;;;2.07;0.97;;;;;;;;;;5014533;28;20542;-72
2021/03/27 09:40:08;;;;;;;2.07;0.70;;;;;;;;;;5013700;28;20189;-71
2021/03/27 09:43:49;;;;;;;0.60;0.60;;;;;;;;;;5013363;28;20578;-72
2021/03/27 09:47:13;;;;;;;0.60;0.60;;;;;;;;;;5026076;28;20204;-73
2021/03/27 09:50:28;;;;;;;1.57;1.00;;;;;;;;;;5019315;28;20185;-73
2021/03/27 09:53:54;;;;;;;1.77;0.70;;;;;;;;;;5013761;28;20181;-72
2021/03/27 09:57:05;;;;;;;1.70;1.10;;;;;;;;;;5016401;28;20186;-73
2021/03/27 10:00:12;;;;;;;1.20;0.80;;;;;;;;;;5013378;28;20185;-73
2021/03/27 10:03:23;;;;;;;1.07;0.80;;;;;;;;;;5001283;28;20217;-72
2021/03/27 10:07:21;;;;;;;0.97;0.73;;;;;;;;;;5016533;28;20181;-73
2021/03/27 10:10:54;;;;;;;1.03;0.67;;;;;;;;;;4931450;29;20192;-73
2021/03/27 10:14:12;;;;;;;2.50;0.97;;;;;;;;;;4942584;28;20205;-73
2021/03/27 10:17:32;;;;;;;1.40;1.00;;;;;;;;;;5001424;28;20189;-73
2021/03/27 10:20:44;;;;;;;1.40;0.87;;;;;;;;;;5015760;28;20225;-73
2021/03/27 10:24:11;;;;;;;4.07;1.10;;;;;;;;;;5050718;22;20236;-75
2021/03/27 10:27:31;;;;;;;1.30;0.90;;;;;;;;;;5041794;28;20204;-75
2021/03/27 10:30:58;;;;;;;1.83;0.87;;;;;;;;;;5034830;28;20659;-75
2021/03/27 10:34:35;;;;;;;1.93;0.77;;;;;;;;;;5016216;28;20182;-75
2021/03/27 10:37:58;;;;;;;3.23;1.20;;;;;;;;;;4975006;28;20202;-74
2021/03/27 10:41:05;;;;;;;2.07;1.40;;;;;;;;;;4996577;28;20211;-74
2021/03/27 10:44:25;;;;;;;2.50;1.00;;;;;;;;;;5011489;28;20201;-74
2021/03/27 10:47:34;;;;;;;2.50;1.13;;;;;;;;;;5003762;28;20185;-73
2021/03/27 10:50:49;;;;;;;4.03;3.60;;;;;;;;;;5015902;28;20641;-74
2021/03/27 10:54:11;;;;;;;1.23;1.00;;;;;;;;;;5016310;28;20198;-73
2021/03/27 10:57:55;;;;;;;1.37;0.90;;;;;;;;;;5015326;28;20621;-73
2021/03/27 11:01:22;;;;;;;1.00;0.90;;;;;;;;;;5010147;28;20215;-72
2021/03/27 11:05:04;;;;;;;2.10;1.27;;;;;;;;;;4984362;28;20645;-72
2021/03/27 11:08:30;;;;;;;1.40;0.83;;;;;;;;;;4996198;28;20174;-73
2021/03/27 11:11:34;;;;;;;2.40;0.80;;;;;;;;;;4984282;28;20214;-73
2021/03/27 11:15:05;;;;;;;1.53;0.80;;;;;;;;;;5014944;28;20181;-73
2021/03/27 11:18:28;;;;;;;2.13;1.20;;;;;;;;;;5000224;28;20190;-73
2021/03/27 11:22:13;;;;;;;1.87;0.90;;;;;;;;;;5001484;28;20229;-74
2021/03/27 11:25:32;;;;;;;2.27;0.80;;;;;;;;;;5015544;28;20201;-73
2021/03/27 11:28:51;;;;;;;2.03;0.77;;;;;;;;;;5015187;28;20194;-73
2021/03/27 11:32:07;;;;;;;1.43;0.87;;;;;;;;;;5015570;28;20700;-73
2021/03/27 11:35:30;;;;;;;2.73;0.80;;;;;;;;;;5014823;28;20173;-73
2021/03/27 11:38:34;;;;;;;1.40;0.80;;;;;;;;;;5003283;28;20185;-73
2021/03/27 11:41:54;;;;;;;0.83;0.67;;;;;;;;;;5002371;28;20221;-73
2021/03/27 11:45:07;;;;;;;2.67;0.63;;;;;;;;;;4980352;28;20645;-73
2021/03/27 11:48:34;;;;;;;1.43;0.60;;;;;;;;;;5015267;28;20636;-73
2021/03/27 11:52:13;;;;;;;3.03;0.90;;;;;;;;;;4996915;28;20218;-74
2021/03/27 11:55:25;;;;;;;1.90;0.77;;;;;;;;;;4957527;28;20188;-74
2021/03/27 12:03:02;;;;;;;6.50;3.37;;;;;;;;;;5002243;28;20237;-74
2021/03/27 12:06:13;;;;;;;1.70;0.60;;;;;;;;;;5014581;28;20190;-74
2021/03/27 12:09:25;;;;;;;2.10;0.77;;;;;;;;;;5013892;28;20663;-76
2021/03/27 12:13:06;;;;;;;1.20;0.70;;;;;;;;;;5014698;28;20217;-74
2021/03/27 12:16:31;;;;;;;1.33;0.80;;;;;;;;;;5002579;28;20631;-74
2021/03/27 12:19:47;;;;;;;3.43;0.80;;;;;;;;;;5014355;28;20190;-74
2021/03/27 12:23:00;;;;;;;2.00;0.77;;;;;;;;;;4991319;28;20229;-73
2021/03/27 12:26:11;;;;;;;1.57;0.80;;;;;;;;;;4990697;28;20668;-74
2021/03/27 12:29:20;;;;;;;1.20;0.60;;;;;;;;;;5002071;28;20351;-74
2021/03/27 12:32:27;;;;;;;1.63;0.60;;;;;;;;;;5014308;28;20217;-74
2021/03/27 12:35:43;;;;;;;11.63;6.97;;;;;;;;;;5014090;28;20535;-73
2021/03/27 12:38:57;;;;;;;4.20;2.20;;;;;;;;;;5014386;28;20186;-74
2021/03/27 12:42:01;;;;;;;3.57;1.93;;;;;;;;;;5001999;28;20213;-75
2021/03/27 12:45:12;;;;;;;11.33;4.10;;;;;;;;;;4989571;28;20541;-75
2021/03/27 12:48:37;;;;;;;2.40;1.50;;;;;;;;;;5002288;28;20181;-76
2021/03/27 12:51:47;;;;;;;8.83;3.00;;;;;;;;;;5013674;28;20209;-75
2021/03/27 12:55:01;;;;;;;2.03;0.97;;;;;;;;;;5001614;28;20185;-75
2021/03/27 12:58:41;;;;;;;1.63;0.90;;;;;;;;;;5001806;28;20557;-75
2021/03/27 13:01:45;;;;;;;2.47;1.23;;;;;;;;;;5013700;28;20225;-75
2021/03/27 13:05:23;;;;;;;0.90;0.60;;;;;;;;;;4994334;28;20190;-74
2021/03/27 13:08:39;;;;;;;2.77;0.87;;;;;;;;;;4993406;28;20179;-73
2021/03/27 13:12:06;;;;;;;1.67;0.90;;;;;;;;;;4993379;28;20218;-74
2021/03/27 13:15:17;;;;;;;5.70;0.80;;;;;;;;;;4998975;28;20193;-74
2021/03/27 13:18:36;;;;;;;2.00;0.67;;;;;;;;;;5001472;28;20201;-74
2021/03/27 13:21:46;;;;;;;3.00;0.57;;;;;;;;;;5012650;28;20225;-74
2021/03/27 13:25:05;;;;;;;0.90;0.87;;;;;;;;;;5014408;28;20213;-74
2021/03/27 13:28:22;;;;;;;2.53;0.70;;;;;;;;;;4990675;28;20186;-74
2021/03/27 13:31:35;;;;;;;0.40;0.40;;;;;;;;;;5000915;28;20692;-74
2021/03/27 13:34:45;;;;;;;2.00;0.83;;;;;;;;;;5013699;28;20185;-74
2021/03/27 13:37:53;;;;;;;1.83;0.77;;;;;;;;;;5000821;28;20197;-74
2021/03/27 13:41:02;;;;;;;1.60;0.40;;;;;;;;;;5013320;28;20539;-74
2021/03/27 13:44:40;;;;;;;1.43;0.63;;;;;;;;;;5013402;28;20182;-74
2021/03/27 13:47:54;;;;;;;1.87;0.60;;;;;;;;;;4989980;28;20194;-74
2021/03/27 13:51:08;;;;;;;2.13;0.70;;;;;;;;;;4981893;28;20641;-74
2021/03/27 13:54:23;;;;;;;8.17;0.87;;;;;;;;;;5007913;28;20185;-74
2021/03/27 13:57:36;;;;;;;3.20;0.93;;;;;;;;;;5013104;28;20182;-74
2021/03/27 14:00:53;;;;;;;1.47;0.63;;;;;;;;;;5012989;28;20197;-74
2021/03/27 14:04:10;;;;;;;0.97;0.50;;;;;;;;;;5015097;28;20174;-74
2021/03/27 14:07:35;;;;;;;1.80;0.60;;;;;;;;;;5016877;28;20197;-74
2021/03/27 14:10:45;;;;;;;1.40;0.70;;;;;;;;;;5004484;28;20197;-74
2021/03/27 14:14:03;;;;;;;1.40;0.50;;;;;;;;;;4985408;28;20637;-74
2021/03/27 14:17:30;;;;;;;5.20;1.50;;;;;;;;;;5015254;28;20194;-74
2021/03/27 14:21:00;;;;;;;1.60;0.83;;;;;;;;;;5004480;28;20193;-74
2021/03/27 14:24:16;;;;;;;1.07;0.57;;;;;;;;;;5016790;28;20197;-74
2021/03/27 14:27:34;;;;;;;1.77;0.57;;;;;;;;;;5016688;28;20190;-74
2021/03/27 14:30:51;;;;;;;0.90;0.77;;;;;;;;;;4997122;28;20206;-74
2021/03/27 14:34:27;;;;;;;1.40;0.60;;;;;;;;;;4985373;28;20183;-74
2021/03/27 14:38:11;;;;;;;1.30;0.50;;;;;;;;;;4997377;28;20182;-75
2021/03/27 14:41:26;;;;;;;2.93;0.70;;;;;;;;;;4968346;28;20669;-74
2021/03/27 14:44:57;;;;;;;1.30;0.70;;;;;;;;;;4992630;28;20189;-74
2021/03/27 14:48:36;;;;;;;3.40;0.57;;;;;;;;;;5015995;28;20178;-73
2021/03/27 14:51:49;;;;;;;3.83;0.63;;;;;;;;;;5003664;28;20217;-74
2021/03/27 14:55:11;;;;;;;3.07;0.53;;;;;;;;;;5003878;28;20197;-74
2021/03/27 14:58:31;;;;;;;1.90;0.63;;;;;;;;;;5004464;28;20182;-74
2021/03/27 15:01:41;;;;;;;3.60;0.70;;;;;;;;;;5003844;28;20748;-75
2021/03/27 15:05:01;;;;;;;6.03;0.70;;;;;;;;;;5004202;28;20186;-74
2021/03/27 15:08:23;;;;;;;1.57;0.70;;;;;;;;;;5016116;28;20185;-74
2021/03/27 15:12:06;;;;;;;0.60;0.40;;;;;;;;;;5003513;28;20217;-75
2021/03/27 15:15:27;;;;;;;1.37;0.70;;;;;;;;;;5000516;28;20175;-74
2021/03/27 15:18:38;;;;;;;0.90;0.70;;;;;;;;;;5002149;28;20544;-75
2021/03/27 15:22:01;;;;;;;5.10;0.70;;;;;;;;;;5003147;28;20213;-75
2021/03/27 15:29:06;;;;;;;6.23;0.70;;;;;;;;;;5004664;28;20534;-77
2021/03/27 15:32:38;;;;;;;1.30;0.60;;;;;;;;;;5002519;28;20218;-75
2021/03/27 15:36:21;;;;;;;2.77;0.80;;;;;;;;;;5003212;28;20182;-76
2021/03/27 15:39:45;;;;;;;0.90;0.60;;;;;;;;;;4996136;28;20201;-74
2021/03/27 15:43:00;;;;;;;2.10;0.70;;;;;;;;;;5014863;28;20233;-75
2021/03/27 15:46:10;;;;;;;6.13;1.00;;;;;;;;;;5015186;28;20636;-75
2021/03/27 15:49:30;;;;;;;0.77;0.60;;;;;;;;;;5003531;28;20185;-75
2021/03/27 15:52:46;;;;;;;1.43;0.60;;;;;;;;;;5003108;28;20217;-74
2021/03/27 15:56:01;;;;;;;1.47;0.80;;;;;;;;;;5015303;28;20621;-74
2021/03/27 15:59:27;;;;;;;5.83;0.87;;;;;;;;;;5015304;28;20631;-74
2021/03/27 16:02:50;;;;;;;4.70;0.70;;;;;;;;;;4983607;28;20226;-74
2021/03/27 16:06:13;;;;;;;1.90;0.70;;;;;;;;;;5005883;28;20654;-74
2021/03/27 16:09:50;;;;;;;5.63;1.57;;;;;;;;;;5002433;28;20185;-75
2021/03/27 16:13:14;;;;;;;8.27;4.23;;;;;;;;;;5002798;28;20221;-74
2021/03/27 16:16:53;;;;;;;5.77;2.93;;;;;;;;;;5014271;28;20645;-74
2021/03/27 16:20:35;;;;;;;23.13;10.30;;;;;;;;;;5014129;28;20193;-75
2021/03/27 16:24:20;;;;;;;1.80;0.80;;;;;;;;;;5002354;28;20230;-74
2021/03/27 16:27:43;;;;;;;4.47;1.03;;;;;;;;;;5014644;28;20186;-74
2021/03/27 16:31:05;;;;;;;2.13;1.00;;;;;;;;;;4991836;28;20186;-73
2021/03/27 16:34:33;;;;;;;2.40;0.73;;;;;;;;;;5014860;28;20178;-74
2021/03/27 16:38:11;;;;;;;2.60;1.43;;;;;;;;;;5001662;28;20189;-74
2021/03/27 16:41:23;;;;;;;10.03;3.30;;;;;;;;;;4982529;28;20642;-74
2021/03/27 16:45:05;;;;;;;3.50;1.77;;;;;;;;;;5013792;28;20217;-74
2021/03/27 16:48:15;;;;;;;17.53;3.33;;;;;;;;;;5001988;28;20657;-73
2021/03/27 16:51:38;;;;;;;1.97;1.03;;;;;;;;;;5001942;28;20185;-74
2021/03/27 16:55:06;;;;;;;2.97;1.70;;;;;;;;;;5002189;28;20189;-74
2021/03/27 16:58:20;;;;;;;3.53;2.20;;;;;;;;;;4982354;28;20186;-73
2021/03/27 17:01:42;;;;;;;8.50;4.17;;;;;;;;;;5005176;28;20217;-74
2021/03/27 17:05:12;;;;;;;43.83;3.77;;;;;;;;;;5005404;28;20190;-73
2021/03/27 17:08:30;;;;;;;5.53;3.73;;;;;;;;;;5000686;28;20186;-73
2021/03/27 17:12:04;;;;;;;2.53;1.73;;;;;;;;;;5013148;28;20225;-74
2021/03/27 17:15:16;;;;;;;3.57;1.80;;;;;;;;;;4986978;28;20194;-74
2021/03/27 17:19:01;;;;;;;9.53;4.17;;;;;;;;;;5002111;28;20193;-73
2021/03/27 17:22:27;;;;;;;6.00;3.80;;;;;;;;;;4994441;28;20595;-73
2021/03/27 17:26:08;;;;;;;1.77;1.00;;;;;;;;;;5013368;28;20205;-73
2021/03/27 17:29:37;;;;;;;1.77;1.00;;;;;;;;;;5013425;28;20174;-73
2021/03/27 17:32:44;;;;;;;2.70;1.30;;;;;;;;;;5002306;28;20224;-74
2021/03/27 17:35:52;;;;;;;3.97;2.10;;;;;;;;;;5001357;28;20673;-74
2021/03/27 17:39:09;;;;;;;10.23;5.13;;;;;;;;;;5012806;28;20205;-74
2021/03/27 17:42:38;;;;;;;16.93;10.10;;;;;;;;;;5013044;28;20217;-73
2021/03/27 17:46:18;;;;;;;8.23;3.33;;;;;;;;;;4981943;28;20178;-74
2021/03/27 17:49:22;;;;;;;8.63;5.33;;;;;;;;;;4956903;28;20201;-74
2021/03/27 17:52:37;;;;;;;13.83;6.97;;;;;;;;;;4990226;28;20566;-74
2021/03/27 17:55:42;;;;;;;8.97;6.00;;;;;;;;;;5012753;28;20197;-75
2021/03/27 17:58:54;;;;;;;9.57;5.43;;;;;;;;;;5013162;28;20193;-72
2021/03/27 18:02:04;;;;;;;8.37;4.50;;;;;;;;;;5009192;28;20225;-73
2021/03/27 18:05:10;;;;;;;7.93;4.20;;;;;;;;;;4999840;28;20185;-73
2021/03/27 18:08:23;;;;;;;12.43;6.57;;;;;;;;;;5001177;28;20186;-73
2021/03/27 18:11:30;;;;;;;8.07;2.83;;;;;;;;;;5013149;28;20703;-73
2021/03/27 18:15:14;;;;;;;5.33;2.63;;;;;;;;;;5013148;28;20185;-74
2021/03/27 18:18:35;;;;;;;5.43;2.33;;;;;;;;;;4922280;28;20177;-74
2021/03/27 18:21:42;;;;;;;7.20;3.83;;;;;;;;;;5012907;28;20584;-73
2021/03/27 18:25:07;;;;;;;5.87;3.40;;;;;;;;;;4999408;28;20221;-73
2021/03/27 18:28:38;;;;;;;2.07;1.47;;;;;;;;;;4981748;28;20179;-74
2021/03/27 18:32:05;;;;;;;4.17;1.80;;;;;;;;;;4993706;28;20221;-73
2021/03/27 18:35:19;;;;;;;5.07;1.57;;;;;;;;;;4993469;28;20186;-73
2021/03/27 18:38:46;;;;;;;10.20;1.70;;;;;;;;;;4991223;28;20545;-73
2021/03/27 18:42:08;;;;;;;4.67;1.30;;;;;;;;;;5002760;28;20226;-73
2021/03/27 18:45:23;;;;;;;4.80;1.10;;;;;;;;;;5012990;28;20217;-74
2021/03/27 18:48:30;;;;;;;4.80;1.50;;;;;;;;;;5013120;28;20189;-73
2021/03/27 18:51:48;;;;;;;8.77;4.37;;;;;;;;;;5014817;28;20696;-73
2021/03/27 18:55:00;;;;;;;5.03;3.13;;;;;;;;;;5016206;28;20186;-73
2021/03/27 18:58:08;;;;;;;5.23;3.07;;;;;;;;;;5003526;28;20197;-73
2021/03/27 19:01:21;;;;;;;10.23;6.83;;;;;;;;;;5011927;28;20190;-74
2021/03/27 19:04:31;;;;;;;7.20;4.87;;;;;;;;;;5016003;28;20213;-73
2021/03/27 19:07:41;;;;;;;6.40;5.83;;;;;;;;;;5016239;28;20181;-73
2021/03/27 19:10:48;;;;;;;8.07;3.67;;;;;;;;;;5016546;28;20185;-72
2021/03/27 19:13:59;;;;;;;7.30;3.57;;;;;;;;;;5015529;28;20529;-74
2021/03/27 19:17:13;;;;;;;6.53;3.10;;;;;;;;;;5015525;28;20197;-74
2021/03/27 19:20:21;;;;;;;7.83;2.30;;;;;;;;;;5015153;28;20198;-73
2021/03/27 19:23:32;;;;;;;5.93;3.00;;;;;;;;;;5003760;28;20225;-74
2021/03/27 19:26:54;;;;;;;7.00;5.30;;;;;;;;;;4994694;28;20300;-74
2021/03/27 19:30:09;;;;;;;7.87;4.43;;;;;;;;;;5002967;28;20193;-73
2021/03/27 19:33:34;;;;;;;10.87;6.33;;;;;;;;;;5002677;28;20696;-73
2021/03/27 19:36:39;;;;;;;6.27;3.20;;;;;;;;;;5015071;28;20645;-73
2021/03/27 19:39:52;;;;;;;5.63;3.80;;;;;;;;;;5015664;28;20178;-73
2021/03/27 19:43:20;;;;;;;9.63;4.93;;;;;;;;;;5002741;28;20220;-74
2021/03/27 19:46:42;;;;;;;8.43;4.00;;;;;;;;;;5015071;28;20513;-73
2021/03/27 19:49:55;;;;;;;6.97;4.13;;;;;;;;;;5014603;28;20182;-74
2021/03/27 19:53:26;;;;;;;7.73;3.40;;;;;;;;;;5014859;28;20217;-74
2021/03/27 19:57:02;;;;;;;7.00;2.97;;;;;;;;;;4989272;28;20652;-73
2021/03/27 20:00:28;;;;;;;4.47;2.20;;;;;;;;;;4995455;28;20178;-74
2021/03/27 20:03:56;;;;;;;3.80;1.50;;;;;;;;;;4996264;28;20184;-74
2021/03/27 20:07:04;;;;;;;2.67;1.77;;;;;;;;;;5002785;28;20193;-73
2021/03/27 20:10:29;;;;;;;6.03;1.80;;;;;;;;;;4991521;28;20664;-73
2021/03/27 20:13:53;;;;;;;5.47;1.70;;;;;;;;;;5014370;28;20185;-74